Aeroporto :
LOGIN :

Iscrizione | Disclaimer

   EN    FR    IT 

 










Sommario :    VFR   VFR Marginale   IFR   IFR Intensivo   IFR Molto Intensivo
Visibilità : 
Base nubi : 
>= 8 km
>= 3000ft
5 / 8 km
1000 / 3000 ft
1500m / 5 km
500 / 1000 ft
800 / 1500m
200 / 500 ft
< 800m
< 200 ft
Simboli :   Temporali  Nebbia  Neve Forte  Precipitazioni Forti  Vento > 20 kt
SIGMETs :   Varie  Temporali  Ghiacco  Turbolenza  Onda orograficha  Ceneri Vulcaniche






- Altitudine del aeroporto : 187 ft


ETNW - Wunstorf AB

ULTIMO METAR :
  • 191720Z 23005KT 9999 SCT023 BKN070 05/03 Q1017 BLU

METARs OBSOLETI :
  • 191620Z 23005KT 9999 FEW010 SCT025 BKN075 05/03 Q1017 BLU
  • 191600Z 23007KT 9999 FEW010 BKN025 BKN070 05/03 Q1017 BLU FCST CANCEL
  • 191520Z 23010KT 9999 FEW009 SCT011 BKN026 06/03 Q1016 BLU BLU

TAF TAF ETNW
Valido dal 19 a 18 ore il 20 a 18 ore UTC


191725Z 1918/2018 22005KT 9999 NSW SCT012 BKN030
TEMPO 1918/1920 23008KT 7000 -RA BKN010 BKN020
BECMG 1920/1922 23005KT 3000 BR SCT050
TEMPO 2000/2009 VRB01KT 0500 FG VV001
BECMG 2009/2011 VRB03KT 8000 NSW BKN020
BECMG 2015/2017 VRB02KT 6000 NSW SCT020 BY ETGL



MetMap, La meteo Aeronautica in un colpo d'occhio ! - Copyright ORBIFLY Dicembre 2007 - Disclaimer

ORBIFLY MET'MAP TEAM :

Programmazione e sviluppo : Alexandra Zaïnal
Concezione e sviluppo : Baudouin d'Aumeries
Co-Programmazione e sviluppo : Marc-Olivier Méhu
Supporto tecnico e logistico : Manuel Goepfert
Aiuto per la traduzione : Arnaldo La Scala

Contatto : metmap@orbifly.com




FONTI E CREDITI :

   NOAA